CheckWX is a tool to help pilots better visualize weather data.  It is not intended as a substitute for an official pre-flight weather briefing.

00:39:29 UTC

KGDV TAF
Dawson Community Airport
Glendive, Montana, USA
KGDV 262334Z 2700/2724 VRB06KT P6SM SCT200 FM271500 31014G24KT P6SM BKN150

Mar-27@
00:00 UTC

Mar-27 @ 00:00 UTC

Mar-27@
15:00 UTC

Mar-27 @ 15:00 UTC

KGDV 262334Z 2700/2724 VRB06KT P6SM SCT200
Wind
  • Variable at 6 KTS
Cloud Levels
  • Scattered at 20,000' AGL

Mar-27@
15:00 UTC

Mar-27 @ 15:00 UTC

Mar-28@
00:00 UTC

Mar-28 @ 00:00 UTC

FM271500 31014G24KT P6SM BKN150

From

From Standard forecast or significant change

Wind
  • 310° at 14 KTS
  • {Gusting to 24 KTS
Cloud Levels
  • Broken at 15,000' AGL